Time;durP1;ratioP1;P1;durP2;ratioP2;P2;SDS_P1;SDS_P2;PMS_P1;PMS_P2;Temp;Humidity;BMP_temperature;BMP_pressure;BME280_temperature;BME280_humidity;BME280_pressure;Samples;Min_cycle;Max_cycle;Signal;HPM_P1;HPM_P2
2023/01/30 00:01:15;;;;;;;15.00;7.28;;;2.20;65.60;;;;;;2315096;54;21036;-71
2023/01/30 00:03:42;;;;;;;13.98;6.85;;;2.20;65.60;;;;;;2314329;54;20941;-69
2023/01/30 00:06:09;;;;;;;11.52;6.53;;;2.20;65.70;;;;;;2315280;54;20973;-70
2023/01/30 00:08:35;;;;;;;10.98;5.78;;;2.30;65.80;;;;;;2314785;54;20943;-70
2023/01/30 00:11:08;;;;;;;14.15;7.60;;;2.30;65.70;;;;;;2314206;54;21408;-72
2023/01/30 00:13:34;;;;;;;13.95;7.57;;;2.30;65.70;;;;;;2469409;53;20941;-72
2023/01/30 00:16:03;;;;;;;13.88;7.55;;;2.30;65.70;;;;;;2340463;53;20994;-70
2023/01/30 00:18:30;;;;;;;14.93;7.07;;;2.30;65.70;;;;;;2314673;54;20956;-72
2023/01/30 00:21:00;;;;;;;13.18;6.95;;;2.30;65.70;;;;;;2359438;53;20947;-71
2023/01/30 00:23:26;;;;;;;13.60;6.93;;;2.40;65.90;;;;;;2314818;54;21505;-69
2023/01/30 00:25:52;;;;;;;14.75;7.55;;;2.40;65.90;;;;;;2489586;53;20949;-68
2023/01/30 00:28:19;;;;;;;12.02;6.47;;;2.40;65.90;;;;;;2314836;54;20965;-72
2023/01/30 00:30:49;;;;;;;13.55;7.00;;;2.40;66.00;;;;;;2314163;54;20962;-71
2023/01/30 00:33:15;;;;;;;10.25;5.45;;;2.40;66.00;;;;;;2314883;54;20961;-70
2023/01/30 00:35:43;;;;;;;14.85;7.30;;;2.50;66.10;;;;;;2314751;54;20997;-72
2023/01/30 00:38:11;;;;;;;13.93;7.20;;;2.50;66.10;;;;;;2314832;54;21869;-70
2023/01/30 00:40:37;;;;;;;14.65;7.72;;;2.50;66.20;;;;;;2340325;53;20941;-70
2023/01/30 00:48:37;;;;;;;13.75;7.72;;;2.60;66.40;;;;;;2315339;54;20948;-71
2023/01/30 00:51:05;;;;;;;12.32;6.72;;;2.60;66.40;;;;;;2314667;53;21818;-72
2023/01/30 00:53:32;;;;;;;13.13;7.18;;;2.60;66.40;;;;;;2331332;53;21073;-73
2023/01/30 00:56:00;;;;;;;12.90;7.25;;;2.70;66.60;;;;;;2328181;53;21556;-71
2023/01/30 00:58:26;;;;;;;13.95;7.30;;;2.70;66.60;;;;;;2375286;53;20976;-72
2023/01/30 01:00:55;;;;;;;13.85;7.18;;;2.70;66.60;;;;;;2324658;53;21809;-71
2023/01/30 01:03:21;;;;;;;12.75;6.72;;;2.80;66.60;;;;;;2368503;53;21033;-70
2023/01/30 01:05:48;;;;;;;15.23;7.72;;;2.80;66.60;;;;;;2314211;54;20953;-71
2023/01/30 01:08:15;;;;;;;10.80;6.15;;;2.80;66.50;;;;;;2314852;54;20993;-71
2023/01/30 01:10:41;;;;;;;12.15;6.30;;;2.90;66.60;;;;;;2314661;54;21005;-73
2023/01/30 01:13:09;;;;;;;11.02;5.62;;;2.90;66.50;;;;;;2314646;54;21028;-72
2023/01/30 01:15:36;;;;;;;11.73;5.75;;;2.90;66.40;;;;;;2314903;54;20929;-69
2023/01/30 01:18:03;;;;;;;12.43;7.00;;;2.90;66.30;;;;;;2311478;54;20965;-69
2023/01/30 01:20:29;;;;;;;11.90;6.18;;;3.00;66.30;;;;;;2315050;54;21000;-69
2023/01/30 01:22:55;;;;;;;10.52;5.80;;;3.00;66.20;;;;;;2407842;53;20981;-71
2023/01/30 01:25:22;;;;;;;11.57;6.03;;;3.00;66.10;;;;;;2314256;54;21028;-70
2023/01/30 01:27:50;;;;;;;12.80;5.65;;;3.00;66.00;;;;;;2346635;53;20939;-73
2023/01/30 01:30:16;;;;;;;12.73;6.20;;;3.00;65.80;;;;;;2339586;54;20957;-71
2023/01/30 01:32:42;;;;;;;10.45;5.97;;;3.00;66.40;;;;;;2314379;54;21048;-71
2023/01/30 01:35:09;;;;;;;12.15;6.80;;;3.00;65.60;;;;;;2494610;53;20985;-71
2023/01/30 01:37:35;;;;;;;14.98;6.72;;;3.00;65.60;;;;;;2373909;53;20985;-72
2023/01/30 01:42:47;;;;;;;11.10;5.50;;;3.00;65.50;;;;;;2398481;53;21424;-70
2023/01/30 01:45:23;;;;;;;12.45;6.40;;;3.00;65.40;;;;;;2472752;53;21065;-68
2023/01/30 01:48:02;;;;;;;12.77;6.78;;;2.90;65.30;;;;;;2317993;53;20992;-69
2023/01/30 01:51:16;;;;;;;12.65;6.65;;;3.00;65.20;;;;;;2314140;54;20976;-71
2023/01/30 01:53:49;;;;;;;12.50;6.53;;;2.90;64.80;;;;;;2314631;54;21481;-71
2023/01/30 01:56:16;;;;;;;13.13;6.57;;;2.90;65.20;;;;;;2315109;54;20997;-69
2023/01/30 01:58:45;;;;;;;14.90;7.50;;;2.90;65.20;;;;;;2314688;54;22017;-71
2023/01/30 02:01:11;;;;;;;15.60;7.80;;;2.80;65.10;;;;;;2365003;53;21865;-69
2023/01/30 02:03:41;;;;;;;17.33;8.32;;;2.80;65.20;;;;;;2314339;54;21060;-72
2023/01/30 02:06:07;;;;;;;15.77;7.95;;;2.80;65.20;;;;;;2346616;53;22010;-71
2023/01/30 02:08:40;;;;;;;16.05;7.82;;;2.80;65.30;;;;;;2315981;54;21497;-70
2023/01/30 02:12:58;;;;;;;14.25;7.20;;;2.80;65.40;;;;;;2337378;53;20941;-72
2023/01/30 02:15:24;;;;;;;13.93;7.10;;;2.80;64.90;;;;;;2317497;54;21569;-71
2023/01/30 02:17:51;;;;;;;13.02;6.75;;;2.80;65.50;;;;;;2313383;53;20948;-71
2023/01/30 02:20:32;;;;;;;14.00;7.35;;;2.80;65.60;;;;;;2328471;53;21053;-70
2023/01/30 02:23:24;;;;;;;15.57;8.15;;;2.70;65.50;;;;;;2321035;53;21356;-71
2023/01/30 02:26:09;;;;;;;14.93;7.30;;;2.70;65.50;;;;;;2312393;54;20920;-72
2023/01/30 02:33:21;;;;;;;14.05;7.70;;;2.70;65.50;;;;;;2427114;53;21332;-70
2023/01/30 02:36:00;;;;;;;14.90;7.43;;;2.70;65.00;;;;;;2313335;54;20953;-72
2023/01/30 02:41:33;;;;;;;13.80;7.28;;;2.70;65.60;;;;;;2313761;54;20965;-72
2023/01/30 02:44:04;;;;;;;15.88;7.30;;;2.70;65.70;;;;;;2312957;54;20964;-72
2023/01/30 02:50:00;;;;;;;15.32;7.35;;;2.70;65.90;;;;;;2313813;54;20948;-73
2023/01/30 02:52:26;;;;;;;12.97;6.53;;;2.70;65.80;;;;;;2330019;53;21029;-72
2023/01/30 02:54:53;;;;;;;15.45;7.40;;;2.70;65.90;;;;;;2322541;53;20929;-70
2023/01/30 02:57:23;;;;;;;12.50;6.47;;;2.70;65.90;;;;;;2313962;54;21087;-70
2023/01/30 02:59:55;;;;;;;12.98;7.05;;;2.70;65.90;;;;;;2290486;55;21045;-72
2023/01/30 03:03:09;;;;;;;14.82;7.65;;;2.70;65.90;;;;;;2313456;54;21805;-72
2023/01/30 03:06:07;;;;;;;12.82;6.82;;;2.70;65.90;;;;;;2313035;54;21365;-72
2023/01/30 03:12:31;;;;;;;14.55;7.80;;;2.70;65.80;;;;;;2313284;54;21406;-70
2023/01/30 03:17:12;;;;;;;13.55;7.15;;;2.80;65.70;;;;;;2319669;54;21790;-72
2023/01/30 03:19:39;;;;;;;13.02;6.62;;;2.80;65.50;;;;;;2314319;54;21767;-70
2023/01/30 03:22:06;;;;;;;13.45;6.50;;;2.70;65.90;;;;;;2314059;54;20941;-71
2023/01/30 03:24:33;;;;;;;13.15;7.53;;;2.70;65.90;;;;;;2314631;54;20929;-69
2023/01/30 03:27:09;;;;;;;15.00;7.35;;;2.70;66.00;;;;;;2313809;54;21752;-72
2023/01/30 03:29:36;;;;;;;15.40;7.62;;;2.70;66.00;;;;;;2314273;54;20980;-70
2023/01/30 03:32:02;;;;;;;14.87;7.85;;;2.70;66.10;;;;;;2313923;54;21009;-72
2023/01/30 03:34:28;;;;;;;15.48;7.60;;;2.70;66.10;;;;;;2555203;53;21066;-72
2023/01/30 03:36:55;;;;;;;15.73;8.07;;;2.80;66.20;;;;;;2313692;54;21498;-72
2023/01/30 03:39:23;;;;;;;15.00;7.37;;;2.80;66.20;;;;;;2503504;53;20936;-72
2023/01/30 03:41:49;;;;;;;15.13;8.02;;;2.80;66.20;;;;;;2314471;54;20941;-72
2023/01/30 03:44:16;;;;;;;14.98;7.87;;;2.80;66.20;;;;;;2314554;54;21016;-73
2023/01/30 03:46:42;;;;;;;16.02;8.50;;;2.80;66.30;;;;;;2554737;53;20977;-73
2023/01/30 03:49:08;;;;;;;19.05;7.60;;;2.80;66.30;;;;;;2313469;54;20952;-72
2023/01/30 03:51:35;;;;;;;13.10;6.07;;;2.80;66.40;;;;;;2314544;54;21004;-71
2023/01/30 03:54:02;;;;;;;14.40;7.00;;;2.80;66.50;;;;;;2314085;54;20988;-73
2023/01/30 03:56:29;;;;;;;14.85;7.72;;;2.90;66.60;;;;;;2314627;54;20952;-71
2023/01/30 03:58:56;;;;;;;14.07;7.68;;;2.90;66.60;;;;;;2313567;54;21382;-70
2023/01/30 04:01:22;;;;;;;13.38;7.47;;;2.90;66.70;;;;;;2314856;54;20968;-70
2023/01/30 04:03:49;;;;;;;15.20;7.55;;;3.00;66.80;;;;;;2314179;54;20941;-72
2023/01/30 04:06:15;;;;;;;15.23;8.00;;;3.00;66.80;;;;;;2314578;54;21498;-69
2023/01/30 04:08:41;;;;;;;12.80;6.35;;;3.00;66.80;;;;;;2314396;54;20948;-71
2023/01/30 04:11:07;;;;;;;13.10;6.97;;;3.10;66.90;;;;;;2314371;54;20996;-70
2023/01/30 04:13:34;;;;;;;14.70;7.80;;;3.10;66.80;;;;;;2389673;53;20993;-69
2023/01/30 04:16:17;;;;;;;13.10;7.03;;;3.10;66.80;;;;;;2314445;54;21422;-71
2023/01/30 04:18:43;;;;;;;13.93;7.20;;;3.20;66.60;;;;;;2314696;54;21020;-73
2023/01/30 04:21:09;;;;;;;14.10;7.37;;;3.20;66.70;;;;;;2314145;54;20989;-73
2023/01/30 04:23:37;;;;;;;13.13;7.10;;;3.20;66.60;;;;;;2315029;53;20945;-72
2023/01/30 04:26:04;;;;;;;13.57;7.28;;;3.30;66.60;;;;;;2314133;54;20957;-70
2023/01/30 04:28:32;;;;;;;13.30;7.10;;;3.30;66.60;;;;;;2314984;54;21035;-70
2023/01/30 04:30:58;;;;;;;13.88;7.22;;;3.30;66.50;;;;;;2313947;54;20960;-70
2023/01/30 04:33:24;;;;;;;15.20;7.65;;;3.30;66.40;;;;;;2555359;53;21704;-70
2023/01/30 04:35:57;;;;;;;14.27;7.12;;;3.30;66.30;;;;;;2402590;53;20968;-73
2023/01/30 04:38:23;;;;;;;;;;;3.40;66.40;;;;;;2319142;54;21029;-72
2023/01/30 04:40:53;;;;;;;13.95;6.40;;;3.40;65.60;;;;;;2327970;53;20619;-73
2023/01/30 04:43:20;;;;;;;13.27;6.97;;;3.40;66.30;;;;;;2339506;53;20966;-73
2023/01/30 04:45:47;;;;;;;14.43;7.55;;;3.50;66.40;;;;;;2325310;53;20924;-73
2023/01/30 04:48:13;;;;;;;13.62;7.03;;;3.40;66.40;;;;;;2314349;53;20992;-73
2023/01/30 04:50:40;;;;;;;18.10;7.40;;;3.40;66.40;;;;;;2456824;53;21544;-71
2023/01/30 04:53:07;;;;;;;14.77;8.30;;;3.40;66.50;;;;;;2314042;54;21367;-73
2023/01/30 04:55:34;;;;;;;15.02;7.40;;;3.40;66.50;;;;;;2314718;54;20952;-74
2023/01/30 04:58:00;;;;;;;15.13;8.02;;;3.40;66.50;;;;;;2313764;54;21016;-74
2023/01/30 05:00:30;;;;;;;14.65;7.65;;;3.40;66.50;;;;;;2315103;54;21493;-72
2023/01/30 05:02:57;;;;;;;15.68;8.20;;;3.50;66.70;;;;;;2316907;54;20941;-74
2023/01/30 05:05:24;;;;;;;14.43;7.57;;;3.50;66.70;;;;;;2314996;54;20988;-73
2023/01/30 05:07:50;;;;;;;13.27;7.70;;;3.50;66.70;;;;;;2314341;54;20976;-71
2023/01/30 05:10:19;;;;;;;13.48;7.12;;;3.50;66.70;;;;;;2314097;54;20961;-71
2023/01/30 05:12:45;;;;;;;15.10;8.05;;;3.50;66.70;;;;;;2313637;54;20965;-73
2023/01/30 05:15:12;;;;;;;15.02;7.68;;;3.60;66.80;;;;;;2313359;54;20936;-72
2023/01/30 05:17:38;;;;;;;15.10;8.00;;;3.60;66.80;;;;;;2313604;54;21449;-70
2023/01/30 05:20:05;;;;;;;15.63;8.05;;;3.70;66.80;;;;;;2313439;54;21064;-71
2023/01/30 05:22:32;;;;;;;15.07;8.48;;;3.70;66.80;;;;;;2313974;54;20960;-74
2023/01/30 05:24:58;;;;;;;16.37;8.57;;;3.70;66.80;;;;;;2313084;54;20948;-72
2023/01/30 05:27:24;;;;;;;14.93;9.10;;;3.70;66.70;;;;;;2361512;53;21573;-73
2023/01/30 05:29:50;;;;;;;14.43;7.75;;;3.80;66.70;;;;;;2320876;53;20996;-71
2023/01/30 05:32:17;;;;;;;14.55;7.43;;;3.80;66.60;;;;;;2355283;53;20980;-72
2023/01/30 05:34:43;;;;;;;14.02;7.82;;;3.80;66.60;;;;;;2328440;53;20968;-71
2023/01/30 05:37:11;;;;;;;13.68;7.50;;;3.90;66.70;;;;;;2314002;54;20965;-73
2023/01/30 05:39:37;;;;;;;13.38;7.70;;;3.90;66.60;;;;;;2314263;54;20945;-73
2023/01/30 05:42:04;;;;;;;14.02;7.28;;;3.90;66.50;;;;;;2355914;53;21406;-73
2023/01/30 05:44:30;;;;;;;12.52;6.72;;;3.90;66.50;;;;;;2314611;54;21695;-72
2023/01/30 05:46:57;;;;;;;12.88;6.68;;;4.00;66.50;;;;;;2313355;54;20989;-72
2023/01/30 05:49:23;;;;;;;12.00;6.85;;;4.00;66.50;;;;;;2323324;54;20942;-72
2023/01/30 05:51:52;;;;;;;12.18;6.28;;;4.00;66.50;;;;;;2330465;53;20984;-74
2023/01/30 05:54:18;;;;;;;13.05;7.60;;;4.10;66.50;;;;;;2313860;54;20988;-72
2023/01/30 05:56:48;;;;;;;11.82;6.72;;;4.10;66.40;;;;;;2495898;53;20964;-74
2023/01/30 05:59:15;;;;;;;12.40;6.78;;;4.10;66.30;;;;;;2313942;54;21327;-71
2023/01/30 06:01:41;;;;;;;12.65;6.90;;;4.10;66.30;;;;;;2314478;54;21347;-71
2023/01/30 06:04:07;;;;;;;15.52;7.47;;;4.10;66.30;;;;;;2313834;54;20948;-74
2023/01/30 06:06:34;;;;;;;12.25;6.62;;;4.20;66.30;;;;;;2314504;54;21304;-74
2023/01/30 06:09:00;;;;;;;15.55;7.28;;;4.20;66.40;;;;;;2313862;54;21330;-71
2023/01/30 06:11:26;;;;;;;13.88;7.53;;;4.20;66.40;;;;;;2314631;54;20949;-73
2023/01/30 06:13:53;;;;;;;13.52;6.90;;;4.20;66.30;;;;;;2313455;54;20964;-74
2023/01/30 06:16:19;;;;;;;12.70;6.78;;;4.20;66.30;;;;;;2439225;53;21719;-73
2023/01/30 06:18:47;;;;;;;12.95;6.62;;;4.30;66.30;;;;;;2375727;53;21403;-69
2023/01/30 06:21:14;;;;;;;12.35;6.70;;;4.30;66.20;;;;;;2441159;53;21449;-73
2023/01/30 06:23:40;;;;;;;13.95;7.12;;;4.30;66.20;;;;;;2314167;54;21024;-73
2023/01/30 06:26:07;;;;;;;12.57;6.80;;;4.30;66.20;;;;;;2313254;54;20940;-72
2023/01/30 06:28:35;;;;;;;12.37;6.78;;;4.30;66.20;;;;;;2314615;54;21508;-70
2023/01/30 06:31:07;;;;;;;11.38;6.80;;;4.40;66.30;;;;;;2347565;53;21036;-73
2023/01/30 06:33:34;;;;;;;11.70;6.60;;;4.40;66.10;;;;;;2314319;54;20956;-74
2023/01/30 06:36:00;;;;;;;13.65;7.15;;;4.40;66.10;;;;;;2313612;54;20956;-69
2023/01/30 06:38:26;;;;;;;12.10;6.35;;;4.40;66.00;;;;;;2314487;54;21040;-71
2023/01/30 06:40:53;;;;;;;13.50;6.40;;;4.40;66.00;;;;;;2313485;54;21221;-70
2023/01/30 06:43:19;;;;;;;12.75;6.95;;;4.40;66.00;;;;;;2314444;54;20952;-74
2023/01/30 06:45:45;;;;;;;13.15;6.87;;;4.40;65.90;;;;;;2382608;53;20941;-71
2023/01/30 06:48:11;;;;;;;11.95;6.37;;;4.50;66.00;;;;;;2339133;53;20952;-70
2023/01/30 06:50:37;;;;;;;12.77;6.85;;;4.50;65.90;;;;;;2314202;54;21004;-74
2023/01/30 06:53:04;;;;;;;12.45;6.43;;;4.50;65.90;;;;;;2323086;53;21037;-73
2023/01/30 06:55:33;;;;;;;11.57;6.30;;;4.50;65.80;;;;;;2427797;53;21461;-71
2023/01/30 06:58:14;;;;;;;14.15;6.78;;;4.50;65.80;;;;;;2314020;54;21264;-72
2023/01/30 07:00:41;;;;;;;11.52;6.45;;;4.50;65.60;;;;;;2314689;53;20957;-72
2023/01/30 07:03:12;;;;;;;12.68;6.70;;;4.50;65.70;;;;;;2313597;53;21060;-74
2023/01/30 07:05:39;;;;;;;11.27;5.60;;;4.50;65.60;;;;;;2314986;54;20978;-71
2023/01/30 07:08:05;;;;;;;10.73;6.03;;;4.50;65.60;;;;;;2399074;53;21426;-72
2023/01/30 07:10:32;;;;;;;9.48;5.43;;;4.50;65.60;;;;;;2403125;54;20949;-72
2023/01/30 07:12:58;;;;;;;14.30;7.20;;;4.50;65.60;;;;;;2313697;54;21029;-71
2023/01/30 07:15:25;;;;;;;14.50;7.05;;;4.50;65.60;;;;;;2314394;54;21418;-74
2023/01/30 07:17:51;;;;;;;12.40;6.32;;;4.50;65.60;;;;;;2313466;54;20956;-72
2023/01/30 07:20:17;;;;;;;11.65;6.20;;;4.50;65.50;;;;;;2331137;54;20937;-71
2023/01/30 07:22:53;;;;;;;12.35;6.12;;;4.50;65.60;;;;;;2314062;54;21020;-72
2023/01/30 07:25:20;;;;;;;10.40;5.82;;;4.50;65.40;;;;;;2330082;53;21513;-71
2023/01/30 07:27:59;;;;;;;11.55;6.40;;;4.40;65.50;;;;;;2432334;53;21341;-72
2023/01/30 07:30:26;;;;;;;11.50;6.50;;;4.50;65.40;;;;;;2317235;53;20937;-72
2023/01/30 07:32:54;;;;;;;11.85;6.60;;;4.40;65.50;;;;;;2336882;53;20930;-74
2023/01/30 07:35:21;;;;;;;12.80;7.32;;;4.40;65.50;;;;;;2315801;53;21098;-73
2023/01/30 07:37:48;;;;;;;13.35;7.12;;;4.50;65.60;;;;;;2313832;54;20940;-73
2023/01/30 07:40:14;;;;;;;13.40;6.87;;;4.40;65.50;;;;;;2313816;54;21010;-71
2023/01/30 07:42:41;;;;;;;13.25;6.95;;;4.40;65.50;;;;;;2360273;53;21514;-72
2023/01/30 07:45:07;;;;;;;13.43;7.20;;;4.40;65.50;;;;;;2313290;54;21232;-72
2023/01/30 07:47:33;;;;;;;12.65;6.97;;;4.50;65.70;;;;;;2331480;54;21084;-73
2023/01/30 07:50:00;;;;;;;14.25;8.02;;;4.50;65.70;;;;;;2313278;54;21076;-73
2023/01/30 07:52:27;;;;;;;14.68;7.30;;;4.50;65.70;;;;;;2327229;53;20990;-71
2023/01/30 07:54:53;;;;;;;13.38;6.97;;;4.50;65.70;;;;;;2325459;53;20972;-70
2023/01/30 07:57:19;;;;;;;13.23;6.87;;;4.50;65.70;;;;;;2314088;54;20928;-72
2023/01/30 07:59:46;;;;;;;14.23;7.47;;;4.50;65.80;;;;;;2314045;54;20968;-72
2023/01/30 08:02:12;;;;;;;14.43;7.12;;;4.50;65.80;;;;;;2313042;54;21768;-70
2023/01/30 08:04:38;;;;;;;15.25;7.93;;;4.60;65.80;;;;;;2314105;54;20953;-68
2023/01/30 08:07:04;;;;;;;13.48;7.18;;;4.60;65.70;;;;;;2498542;53;21005;-73
2023/01/30 08:09:31;;;;;;;14.18;7.65;;;4.60;65.70;;;;;;2466258;53;20968;-74
2023/01/30 08:11:57;;;;;;;14.75;7.72;;;4.60;65.70;;;;;;2387413;53;20901;-70
2023/01/30 08:14:24;;;;;;;15.38;8.02;;;4.60;65.70;;;;;;2376325;53;20972;-70
2023/01/30 08:16:51;;;;;;;14.95;8.57;;;4.60;65.60;;;;;;2313530;53;20953;-70
2023/01/30 08:19:17;;;;;;;16.92;8.25;;;4.70;65.70;;;;;;2346895;53;21837;-72
2023/01/30 08:21:43;;;;;;;17.33;8.13;;;4.70;65.60;;;;;;2403093;53;21424;-73
2023/01/30 08:24:09;;;;;;;15.80;8.20;;;4.70;65.60;;;;;;2553767;53;21453;-71
2023/01/30 08:26:36;;;;;;;14.75;7.57;;;4.70;65.60;;;;;;2314267;54;21502;-73
2023/01/30 08:29:02;;;;;;;16.60;8.93;;;4.70;65.60;;;;;;2313531;54;20937;-71
2023/01/30 08:31:28;;;;;;;17.67;9.25;;;4.70;65.60;;;;;;2522308;53;21020;-70
2023/01/30 08:33:54;;;;;;;14.50;8.15;;;4.80;65.40;;;;;;2313017;54;21533;-72
2023/01/30 08:36:21;;;;;;;17.35;8.82;;;4.80;65.50;;;;;;2346605;53;20938;-73
2023/01/30 08:38:47;;;;;;;17.25;8.52;;;4.80;65.30;;;;;;2490505;53;20965;-71
2023/01/30 08:41:13;;;;;;;16.10;8.82;;;4.80;65.40;;;;;;2562360;53;21004;-72
2023/01/30 08:43:39;;;;;;;17.80;8.52;;;4.80;65.40;;;;;;2315509;54;21000;-71
2023/01/30 08:46:06;;;;;;;15.75;8.23;;;4.80;65.40;;;;;;2313388;54;21024;-71
2023/01/30 08:48:32;;;;;;;14.15;7.62;;;4.90;65.50;;;;;;2425321;53;21303;-71
2023/01/30 08:51:13;;;;;;;17.92;9.00;;;4.90;65.60;;;;;;2313857;54;20940;-74
2023/01/30 08:53:39;;;;;;;15.27;7.65;;;4.90;65.50;;;;;;2420670;53;20921;-74
2023/01/30 08:56:05;;;;;;;16.52;9.00;;;4.90;65.40;;;;;;2313924;54;21461;-72
2023/01/30 08:58:32;;;;;;;15.40;8.25;;;4.90;65.50;;;;;;2314040;54;21418;-69
2023/01/30 09:00:58;;;;;;;14.23;8.00;;;5.00;65.60;;;;;;2313669;54;21028;-70
2023/01/30 09:03:24;;;;;;;15.35;8.45;;;5.00;65.60;;;;;;2314192;54;20960;-70
2023/01/30 09:05:54;;;;;;;15.63;8.52;;;5.00;65.60;;;;;;2314227;54;20965;-73
2023/01/30 09:08:21;;;;;;;15.10;8.20;;;5.00;65.40;;;;;;2314582;54;21004;-74
2023/01/30 09:10:47;;;;;;;16.80;9.00;;;5.00;65.40;;;;;;2330289;53;20989;-74
2023/01/30 09:13:13;;;;;;;19.17;9.10;;;5.00;65.30;;;;;;2335375;53;20976;-73
2023/01/30 09:15:43;;;;;;;16.10;8.00;;;5.10;65.40;;;;;;2320683;54;21048;-71
2023/01/30 09:18:09;;;;;;;15.15;8.00;;;5.10;65.40;;;;;;2322625;54;21536;-74
2023/01/30 09:20:35;;;;;;;14.93;8.43;;;5.10;65.50;;;;;;2364623;53;20929;-72
2023/01/30 09:23:01;;;;;;;13.80;6.90;;;5.10;65.50;;;;;;2553326;53;21444;-70
2023/01/30 09:25:28;;;;;;;14.15;8.00;;;5.10;65.50;;;;;;2325448;53;20944;-72
2023/01/30 09:27:54;;;;;;;14.02;7.53;;;5.20;65.60;;;;;;2312461;54;21076;-70
2023/01/30 09:30:20;;;;;;;13.90;7.43;;;5.20;65.60;;;;;;2312750;54;21434;-72
2023/01/30 09:32:47;;;;;;;15.68;7.93;;;5.20;65.60;;;;;;2313999;54;21624;-71
2023/01/30 09:35:13;;;;;;;14.43;8.13;;;5.20;65.60;;;;;;2313367;53;21386;-74
2023/01/30 09:37:49;;;;;;;15.68;8.00;;;5.30;65.60;;;;;;2313862;54;20991;-71
2023/01/30 09:40:17;;;;;;;15.90;8.32;;;5.30;65.50;;;;;;2313444;54;21002;-73
2023/01/30 09:43:23;;;;;;;16.77;7.95;;;5.30;65.60;;;;;;2313969;54;20928;-70
2023/01/30 09:45:59;;;;;;;15.65;8.75;;;5.30;65.30;;;;;;2313531;54;21351;-73
2023/01/30 09:48:52;;;;;;;16.08;8.15;;;5.40;65.70;;;;;;2340664;53;20953;-70
2023/01/30 09:56:42;;;;;;;15.60;8.55;;;5.40;65.70;;;;;;2313759;54;20972;-70
2023/01/30 09:59:21;;;;;;;15.98;7.55;;;5.50;65.00;;;;;;2291456;54;20952;-73
2023/01/30 10:02:17;;;;;;;14.82;8.13;;;5.60;65.80;;;;;;2313934;54;21025;-72
2023/01/30 10:04:44;;;;;;;15.30;7.93;;;5.60;65.30;;;;;;2324581;54;20980;-71
2023/01/30 10:07:29;;;;;;;;;;;5.60;65.70;;;;;;2317188;54;20964;-70
2023/01/30 10:13:00;;;;;;;14.68;8.05;;;5.70;65.00;;;;;;2482739;53;20446;-74
2023/01/30 10:17:16;;;;;;;15.25;7.87;;;5.70;64.90;;;;;;2313827;54;21024;-74
2023/01/30 10:20:09;;;;;;;16.87;8.70;;;5.80;64.70;;;;;;2351868;54;21501;-73
2023/01/30 10:23:03;;;;;;;15.57;7.40;;;5.80;65.20;;;;;;2381607;53;20929;-73
2023/01/30 10:27:00;;;;;;;16.27;8.57;;;5.80;65.00;;;;;;2314223;54;21061;-70
2023/01/30 10:29:34;;;;;;;14.38;7.10;;;5.80;64.20;;;;;;2348292;53;20960;-71
2023/01/30 10:35:01;;;;;;;13.98;7.90;;;5.80;65.20;;;;;;2344711;53;21414;-71
2023/01/30 10:37:32;;;;;;;14.32;7.87;;;5.80;65.20;;;;;;2313998;54;21904;-73
2023/01/30 10:40:53;;;;;;;14.73;8.15;;;5.90;65.20;;;;;;2313732;54;21024;-72
2023/01/30 10:43:36;;;;;;;13.35;7.22;;;5.90;64.80;;;;;;2351237;53;21502;-74
2023/01/30 10:46:14;;;;;;;16.37;8.75;;;5.90;64.90;;;;;;2524831;53;21433;-72
2023/01/30 10:51:02;;;;;;;16.23;9.02;;;5.90;65.10;;;;;;2313870;54;20987;-71
2023/01/30 10:53:41;;;;;;;17.33;9.02;;;5.90;63.90;;;;;;2318188;54;20941;-74
2023/01/30 10:56:18;;;;;;;14.87;8.27;;;5.90;64.50;;;;;;2313807;54;20948;-71
2023/01/30 10:59:02;;;;;;;14.85;8.50;;;6.00;64.70;;;;;;2314004;54;21010;-72
2023/01/30 11:01:39;;;;;;;14.77;8.23;;;5.90;64.50;;;;;;2314117;54;21064;-73
2023/01/30 11:05:40;;;;;;;15.90;8.57;;;5.90;64.70;;;;;;2313448;54;21056;-73
2023/01/30 11:08:20;;;;;;;14.02;7.65;;;5.90;64.50;;;;;;2313232;54;21004;-74
2023/01/30 11:10:47;;;;;;;15.20;7.75;;;5.90;64.50;;;;;;2314044;54;21549;-73
2023/01/30 11:13:28;;;;;;;16.45;8.65;;;5.90;64.90;;;;;;2313132;53;21080;-73
2023/01/30 11:15:55;;;;;;;16.30;8.98;;;6.00;64.80;;;;;;2313451;54;20976;-75
2023/01/30 11:18:22;;;;;;;16.30;8.73;;;6.00;64.90;;;;;;2320091;54;21355;-73
2023/01/30 11:21:23;;;;;;;16.83;8.93;;;6.00;64.80;;;;;;2501163;53;20984;-74
2023/01/30 11:23:53;;;;;;;16.23;8.45;;;6.00;64.70;;;;;;2344344;53;21450;-71
2023/01/30 11:26:31;;;;;;;16.08;8.57;;;6.00;64.90;;;;;;2313650;54;21052;-72
2023/01/30 11:31:02;;;;;;;11.90;6.68;;;6.00;64.90;;;;;;2313315;54;20933;-72
2023/01/30 11:33:33;;;;;;;15.35;7.85;;;6.10;64.00;;;;;;2315872;54;21394;-75
2023/01/30 11:36:04;;;;;;;14.65;7.60;;;6.10;64.90;;;;;;2316966;54;20976;-71
2023/01/30 11:38:32;;;;;;;14.20;7.47;;;6.10;64.80;;;;;;2314075;54;21031;-70
2023/01/30 11:41:32;;;;;;;14.95;8.02;;;6.20;65.00;;;;;;2313207;54;21096;-71
2023/01/30 11:44:02;;;;;;;12.77;7.37;;;6.20;64.30;;;;;;2487484;53;21044;-69
2023/01/30 11:46:38;;;;;;;12.30;7.45;;;6.20;65.60;;;;;;2388078;53;21695;-73
2023/01/30 11:49:13;;;;;;;15.02;7.78;;;6.30;64.80;;;;;;2313177;54;20960;-70
2023/01/30 11:51:40;;;;;;;13.35;7.15;;;6.30;64.80;;;;;;2312953;54;21065;-71
2023/01/30 11:54:17;;;;;;;13.18;6.70;;;6.30;65.10;;;;;;2376177;53;20980;-74
2023/01/30 11:56:56;;;;;;;14.35;7.65;;;6.30;65.10;;;;;;2415417;53;21382;-73
2023/01/30 11:59:35;;;;;;;15.35;8.02;;;6.40;65.00;;;;;;2313773;54;21017;-70
2023/01/30 12:02:23;;;;;;;12.88;7.10;;;6.40;65.00;;;;;;2329149;54;21021;-71
2023/01/30 12:04:55;;;;;;;14.73;7.68;;;6.40;64.70;;;;;;2457590;53;20981;-70
2023/01/30 12:07:25;;;;;;;15.35;7.70;;;6.40;64.90;;;;;;2390892;53;20952;-71
2023/01/30 12:09:53;;;;;;;14.60;7.80;;;6.50;64.90;;;;;;2313529;53;21392;-70
2023/01/30 12:12:36;;;;;;;13.62;7.37;;;6.50;65.00;;;;;;2412151;53;20948;-74
2023/01/30 12:15:51;;;;;;;11.90;6.85;;;6.50;64.50;;;;;;2313923;54;20973;-73
2023/01/30 12:18:30;;;;;;;12.02;6.60;;;6.50;64.30;;;;;;2313855;54;20957;-69
2023/01/30 12:22:36;;;;;;;12.25;6.95;;;6.50;65.00;;;;;;2313344;54;21069;-73
2023/01/30 12:25:12;;;;;;;14.82;7.62;;;6.60;64.00;;;;;;2313446;54;20937;-73
2023/01/30 12:28:11;;;;;;;13.15;7.60;;;6.60;64.80;;;;;;2325926;53;21559;-71
2023/01/30 12:30:47;;;;;;;12.85;7.40;;;6.60;64.50;;;;;;2320993;53;20944;-72
2023/01/30 12:33:15;;;;;;;14.15;7.72;;;6.60;64.60;;;;;;2418498;53;21435;-70
2023/01/30 12:36:48;;;;;;;13.10;7.53;;;6.60;65.50;;;;;;2332196;53;20962;-71
2023/01/30 12:40:07;;;;;;;12.00;6.50;;;6.60;64.00;;;;;;2479445;53;20957;-72
2023/01/30 12:43:01;;;;;;;10.88;6.40;;;6.60;64.20;;;;;;2313640;54;20953;-73
2023/01/30 12:45:33;;;;;;;13.98;7.60;;;6.60;64.60;;;;;;2313793;54;21020;-73
2023/01/30 12:49:42;;;;;;;14.63;7.37;;;6.60;65.00;;;;;;2517331;53;21028;-71
2023/01/30 12:54:44;;;;;;;13.73;6.87;;;6.60;64.30;;;;;;2313225;54;20972;-70
2023/01/30 12:58:13;;;;;;;12.35;7.15;;;6.70;64.30;;;;;;2313233;54;21316;-70
2023/01/30 13:02:23;;;;;;;14.02;7.22;;;6.70;64.30;;;;;;2313820;54;20947;-75
2023/01/30 13:05:21;;;;;;;14.30;7.82;;;6.70;64.70;;;;;;2290999;55;21380;-74
2023/01/30 13:08:10;;;;;;;12.10;7.47;;;6.70;64.80;;;;;;2313408;54;21426;-74
2023/01/30 13:10:59;;;;;;;12.52;6.80;;;6.70;65.00;;;;;;2313461;54;20940;-71
2023/01/30 13:13:34;;;;;;;13.50;7.03;;;6.70;65.20;;;;;;2313912;54;21735;-71
2023/01/30 13:16:26;;;;;;;12.32;7.62;;;6.70;65.10;;;;;;2333007;54;21048;-74
2023/01/30 13:19:19;;;;;;;12.75;7.45;;;6.70;65.00;;;;;;2290829;55;21048;-72
2023/01/30 13:22:08;;;;;;;12.10;6.50;;;6.70;65.00;;;;;;2313678;54;21965;-74
2023/01/30 13:26:15;;;;;;;11.27;6.50;;;6.70;65.20;;;;;;2313891;54;21222;-74
2023/01/30 13:30:04;;;;;;;12.30;6.57;;;6.80;65.30;;;;;;2327021;54;21064;-71
2023/01/30 13:32:40;;;;;;;11.38;6.50;;;6.80;64.60;;;;;;2395245;53;21352;-73
2023/01/30 13:35:19;;;;;;;11.23;6.12;;;6.80;65.40;;;;;;2396446;53;21020;-74
2023/01/30 13:37:47;;;;;;;11.73;6.80;;;6.80;65.30;;;;;;2314323;54;20996;-71
2023/01/30 13:40:19;;;;;;;11.07;6.50;;;6.80;65.60;;;;;;2317663;54;20965;-70
2023/01/30 13:44:20;;;;;;;10.27;5.80;;;6.80;65.70;;;;;;2522445;53;21024;-73
2023/01/30 13:46:46;;;;;;;10.98;6.60;;;6.80;65.50;;;;;;2343077;53;20941;-73
2023/01/30 13:49:36;;;;;;;12.50;6.72;;;6.80;65.80;;;;;;2313031;54;20956;-71
2023/01/30 13:53:09;;;;;;;10.90;6.03;;;6.80;65.70;;;;;;2313148;54;20952;-72
2023/01/30 13:56:00;;;;;;;11.82;6.00;;;6.80;65.80;;;;;;2342909;53;21327;-70
2023/01/30 14:00:14;;;;;;;13.25;6.47;;;6.80;65.60;;;;;;2363801;53;20949;-71
2023/01/30 14:03:13;;;;;;;10.07;5.77;;;6.80;65.20;;;;;;2313632;54;21035;-74
2023/01/30 14:05:59;;;;;;;10.38;5.95;;;6.90;65.50;;;;;;2313674;54;21603;-71
2023/01/30 14:08:31;;;;;;;10.80;6.82;;;6.90;65.70;;;;;;2313990;54;21252;-72
2023/01/30 14:10:57;;;;;;;14.93;8.90;;;6.90;66.10;;;;;;2313699;53;21573;-71
2023/01/30 14:13:24;;;;;;;13.18;7.60;;;6.90;66.10;;;;;;2313509;54;20988;-70